sensor_id;sensor_type;location;lat;lon;timestamp;temperature;humidity
11934;DHT22;6026;48.784;9.198;2023-04-06T00:01:39;3.10;99.90
11934;DHT22;6026;48.784;9.198;2023-04-06T00:04:05;3.10;99.90
11934;DHT22;6026;48.784;9.198;2023-04-06T00:06:30;3.10;99.90
11934;DHT22;6026;48.784;9.198;2023-04-06T00:08:57;3.10;99.90
11934;DHT22;6026;48.784;9.198;2023-04-06T00:11:23;3.00;99.90
11934;DHT22;6026;48.784;9.198;2023-04-06T00:13:48;3.00;99.90
11934;DHT22;6026;48.784;9.198;2023-04-06T00:16:14;3.00;99.90
11934;DHT22;6026;48.784;9.198;2023-04-06T00:18:40;2.90;99.90
11934;DHT22;6026;48.784;9.198;2023-04-06T00:21:06;2.80;99.90
11934;DHT22;6026;48.784;9.198;2023-04-06T00:23:32;2.80;99.90
11934;DHT22;6026;48.784;9.198;2023-04-06T00:25:57;2.70;99.90
11934;DHT22;6026;48.784;9.198;2023-04-06T00:28:23;2.70;99.90
11934;DHT22;6026;48.784;9.198;2023-04-06T00:30:52;2.70;99.90
11934;DHT22;6026;48.784;9.198;2023-04-06T00:33:19;2.80;99.90
11934;DHT22;6026;48.784;9.198;2023-04-06T00:35:45;2.70;99.90
11934;DHT22;6026;48.784;9.198;2023-04-06T00:38:11;2.70;99.90
11934;DHT22;6026;48.784;9.198;2023-04-06T00:40:37;2.70;99.90
11934;DHT22;6026;48.784;9.198;2023-04-06T00:43:07;2.60;99.90
11934;DHT22;6026;48.784;9.198;2023-04-06T00:45:37;2.50;99.90
11934;DHT22;6026;48.784;9.198;2023-04-06T00:48:03;2.50;99.90
11934;DHT22;6026;48.784;9.198;2023-04-06T00:50:29;2.50;99.90
11934;DHT22;6026;48.784;9.198;2023-04-06T00:52:55;2.60;99.90
11934;DHT22;6026;48.784;9.198;2023-04-06T00:55:21;2.60;99.90
11934;DHT22;6026;48.784;9.198;2023-04-06T00:57:49;2.50;99.90
11934;DHT22;6026;48.784;9.198;2023-04-06T01:00:16;2.40;99.90
11934;DHT22;6026;48.784;9.198;2023-04-06T01:02:42;2.40;99.90
11934;DHT22;6026;48.784;9.198;2023-04-06T01:05:08;2.50;99.90
11934;DHT22;6026;48.784;9.198;2023-04-06T01:07:33;2.50;99.90
11934;DHT22;6026;48.784;9.198;2023-04-06T01:09:59;2.50;99.90
11934;DHT22;6026;48.784;9.198;2023-04-06T01:12:25;2.50;99.90
11934;DHT22;6026;48.784;9.198;2023-04-06T01:14:50;2.50;99.90
11934;DHT22;6026;48.784;9.198;2023-04-06T01:17:16;2.50;99.90
11934;DHT22;6026;48.784;9.198;2023-04-06T01:19:42;2.50;99.90
11934;DHT22;6026;48.784;9.198;2023-04-06T01:22:07;2.50;99.90
11934;DHT22;6026;48.784;9.198;2023-04-06T01:24:33;2.50;99.90
11934;DHT22;6026;48.784;9.198;2023-04-06T01:26:59;2.40;99.90
11934;DHT22;6026;48.784;9.198;2023-04-06T01:29:26;2.40;99.90
11934;DHT22;6026;48.784;9.198;2023-04-06T01:31:52;2.30;99.90
11934;DHT22;6026;48.784;9.198;2023-04-06T01:34:17;2.30;99.90
11934;DHT22;6026;48.784;9.198;2023-04-06T01:36:43;2.30;99.90
11934;DHT22;6026;48.784;9.198;2023-04-06T01:39:09;2.20;99.90
11934;DHT22;6026;48.784;9.198;2023-04-06T01:41:34;2.20;99.90
11934;DHT22;6026;48.784;9.198;2023-04-06T01:44:01;2.20;99.90
11934;DHT22;6026;48.784;9.198;2023-04-06T01:46:26;2.30;99.90
11934;DHT22;6026;48.784;9.198;2023-04-06T01:48:52;2.20;99.90
11934;DHT22;6026;48.784;9.198;2023-04-06T01:51:18;2.20;99.90
11934;DHT22;6026;48.784;9.198;2023-04-06T01:53:43;2.10;99.90
11934;DHT22;6026;48.784;9.198;2023-04-06T01:56:09;2.20;99.90
11934;DHT22;6026;48.784;9.198;2023-04-06T01:58:35;2.10;99.90
11934;DHT22;6026;48.784;9.198;2023-04-06T02:01:01;2.00;99.90
11934;DHT22;6026;48.784;9.198;2023-04-06T02:03:26;2.00;99.90
11934;DHT22;6026;48.784;9.198;2023-04-06T02:05:52;2.00;99.90
11934;DHT22;6026;48.784;9.198;2023-04-06T02:08:17;1.90;99.90
11934;DHT22;6026;48.784;9.198;2023-04-06T02:10:43;1.90;99.90
11934;DHT22;6026;48.784;9.198;2023-04-06T02:13:09;1.90;99.90
11934;DHT22;6026;48.784;9.198;2023-04-06T02:15:34;1.90;99.90
11934;DHT22;6026;48.784;9.198;2023-04-06T02:18:00;1.90;99.90
11934;DHT22;6026;48.784;9.198;2023-04-06T02:20:26;1.80;99.90
11934;DHT22;6026;48.784;9.198;2023-04-06T02:22:51;1.80;99.90
11934;DHT22;6026;48.784;9.198;2023-04-06T02:25:17;1.80;99.90
11934;DHT22;6026;48.784;9.198;2023-04-06T02:27:43;1.70;99.90
11934;DHT22;6026;48.784;9.198;2023-04-06T02:30:09;1.70;99.90
11934;DHT22;6026;48.784;9.198;2023-04-06T02:32:35;1.70;99.90
11934;DHT22;6026;48.784;9.198;2023-04-06T02:35:00;1.70;99.90
11934;DHT22;6026;48.784;9.198;2023-04-06T02:37:26;1.60;99.90
11934;DHT22;6026;48.784;9.198;2023-04-06T02:39:52;1.60;99.90
11934;DHT22;6026;48.784;9.198;2023-04-06T02:42:17;1.60;99.90
11934;DHT22;6026;48.784;9.198;2023-04-06T02:44:43;1.50;99.90
11934;DHT22;6026;48.784;9.198;2023-04-06T02:47:09;1.50;99.90
11934;DHT22;6026;48.784;9.198;2023-04-06T02:49:35;1.50;99.90
11934;DHT22;6026;48.784;9.198;2023-04-06T02:52:00;1.50;99.90
11934;DHT22;6026;48.784;9.198;2023-04-06T02:54:26;1.50;99.90
11934;DHT22;6026;48.784;9.198;2023-04-06T02:56:51;1.50;99.90
11934;DHT22;6026;48.784;9.198;2023-04-06T02:59:17;1.50;99.90
11934;DHT22;6026;48.784;9.198;2023-04-06T03:01:43;1.50;99.90
11934;DHT22;6026;48.784;9.198;2023-04-06T03:04:08;1.40;99.90
11934;DHT22;6026;48.784;9.198;2023-04-06T03:06:34;1.40;99.90
11934;DHT22;6026;48.784;9.198;2023-04-06T03:08:59;1.30;99.90
11934;DHT22;6026;48.784;9.198;2023-04-06T03:11:25;1.30;99.90
11934;DHT22;6026;48.784;9.198;2023-04-06T03:13:52;1.30;99.90
11934;DHT22;6026;48.784;9.198;2023-04-06T03:16:17;1.30;99.90
11934;DHT22;6026;48.784;9.198;2023-04-06T03:18:43;1.30;99.90
11934;DHT22;6026;48.784;9.198;2023-04-06T03:21:10;1.20;99.90
11934;DHT22;6026;48.784;9.198;2023-04-06T03:23:36;1.20;99.90
11934;DHT22;6026;48.784;9.198;2023-04-06T03:26:02;1.20;99.90
11934;DHT22;6026;48.784;9.198;2023-04-06T03:28:28;1.20;99.90
11934;DHT22;6026;48.784;9.198;2023-04-06T03:30:53;1.20;99.90
11934;DHT22;6026;48.784;9.198;2023-04-06T03:33:19;1.20;99.90
11934;DHT22;6026;48.784;9.198;2023-04-06T03:35:45;1.20;99.90
11934;DHT22;6026;48.784;9.198;2023-04-06T03:38:11;1.10;99.90
11934;DHT22;6026;48.784;9.198;2023-04-06T03:40:36;1.20;99.90
11934;DHT22;6026;48.784;9.198;2023-04-06T03:43:02;1.10;99.90
11934;DHT22;6026;48.784;9.198;2023-04-06T03:45:27;1.20;99.90
11934;DHT22;6026;48.784;9.198;2023-04-06T03:47:53;1.10;99.90
11934;DHT22;6026;48.784;9.198;2023-04-06T03:50:19;0.90;99.90
11934;DHT22;6026;48.784;9.198;2023-04-06T03:52:44;1.00;99.90
11934;DHT22;6026;48.784;9.198;2023-04-06T03:55:10;0.90;99.90
11934;DHT22;6026;48.784;9.198;2023-04-06T03:57:36;0.90;99.90
11934;DHT22;6026;48.784;9.198;2023-04-06T04:00:03;0.90;99.90
11934;DHT22;6026;48.784;9.198;2023-04-06T04:02:29;0.90;99.90
11934;DHT22;6026;48.784;9.198;2023-04-06T04:04:54;1.00;99.90
11934;DHT22;6026;48.784;9.198;2023-04-06T04:07:20;1.00;99.90
11934;DHT22;6026;48.784;9.198;2023-04-06T04:09:46;1.00;99.90
11934;DHT22;6026;48.784;9.198;2023-04-06T04:12:11;1.00;99.90
11934;DHT22;6026;48.784;9.198;2023-04-06T04:14:37;1.00;99.90
11934;DHT22;6026;48.784;9.198;2023-04-06T04:17:02;0.90;99.90
11934;DHT22;6026;48.784;9.198;2023-04-06T04:19:28;0.90;99.90
11934;DHT22;6026;48.784;9.198;2023-04-06T04:21:53;0.90;99.90
11934;DHT22;6026;48.784;9.198;2023-04-06T04:24:19;0.90;99.90
11934;DHT22;6026;48.784;9.198;2023-04-06T04:26:45;0.90;99.90
11934;DHT22;6026;48.784;9.198;2023-04-06T04:29:10;0.90;99.90
11934;DHT22;6026;48.784;9.198;2023-04-06T04:31:36;0.90;99.90
11934;DHT22;6026;48.784;9.198;2023-04-06T04:34:02;0.90;99.90
11934;DHT22;6026;48.784;9.198;2023-04-06T04:36:27;0.80;99.90
11934;DHT22;6026;48.784;9.198;2023-04-06T04:38:53;0.90;99.90
11934;DHT22;6026;48.784;9.198;2023-04-06T04:41:18;0.80;99.90
11934;DHT22;6026;48.784;9.198;2023-04-06T04:43:44;0.80;99.90
11934;DHT22;6026;48.784;9.198;2023-04-06T04:46:10;0.80;99.90
11934;DHT22;6026;48.784;9.198;2023-04-06T04:48:35;0.80;99.90
11934;DHT22;6026;48.784;9.198;2023-04-06T04:51:01;0.80;99.90
11934;DHT22;6026;48.784;9.198;2023-04-06T04:53:27;0.70;99.90
11934;DHT22;6026;48.784;9.198;2023-04-06T04:55:52;0.70;99.90
11934;DHT22;6026;48.784;9.198;2023-04-06T04:58:18;0.70;99.90
11934;DHT22;6026;48.784;9.198;2023-04-06T05:00:45;0.70;99.90
11934;DHT22;6026;48.784;9.198;2023-04-06T05:03:22;0.70;99.90
11934;DHT22;6026;48.784;9.198;2023-04-06T05:05:48;0.70;99.90
11934;DHT22;6026;48.784;9.198;2023-04-06T05:08:15;0.70;99.90
11934;DHT22;6026;48.784;9.198;2023-04-06T05:10:41;0.70;99.90
11934;DHT22;6026;48.784;9.198;2023-04-06T05:13:07;0.70;99.90
11934;DHT22;6026;48.784;9.198;2023-04-06T05:15:33;0.70;99.90
11934;DHT22;6026;48.784;9.198;2023-04-06T05:18:00;0.70;99.90
11934;DHT22;6026;48.784;9.198;2023-04-06T05:20:26;0.70;99.90
11934;DHT22;6026;48.784;9.198;2023-04-06T05:22:52;0.70;99.90
11934;DHT22;6026;48.784;9.198;2023-04-06T05:25:17;0.80;99.90
11934;DHT22;6026;48.784;9.198;2023-04-06T05:27:43;0.80;99.90
11934;DHT22;6026;48.784;9.198;2023-04-06T05:30:09;0.90;99.90
11934;DHT22;6026;48.784;9.198;2023-04-06T05:32:34;0.90;99.90
11934;DHT22;6026;48.784;9.198;2023-04-06T05:35:00;1.00;99.90
11934;DHT22;6026;48.784;9.198;2023-04-06T05:37:26;1.20;99.90
11934;DHT22;6026;48.784;9.198;2023-04-06T05:39:51;1.30;99.90
11934;DHT22;6026;48.784;9.198;2023-04-06T05:42:17;1.50;99.90
11934;DHT22;6026;48.784;9.198;2023-04-06T05:44:43;1.70;99.90
11934;DHT22;6026;48.784;9.198;2023-04-06T05:47:08;1.90;99.90
11934;DHT22;6026;48.784;9.198;2023-04-06T05:49:34;2.00;99.90
11934;DHT22;6026;48.784;9.198;2023-04-06T05:52:00;2.10;99.90
11934;DHT22;6026;48.784;9.198;2023-04-06T05:54:26;2.30;99.90
11934;DHT22;6026;48.784;9.198;2023-04-06T05:56:52;2.50;99.90
11934;DHT22;6026;48.784;9.198;2023-04-06T05:59:17;2.60;99.90
11934;DHT22;6026;48.784;9.198;2023-04-06T06:01:43;2.70;99.90
11934;DHT22;6026;48.784;9.198;2023-04-06T06:04:08;2.70;99.90
11934;DHT22;6026;48.784;9.198;2023-04-06T06:06:34;2.90;99.90
11934;DHT22;6026;48.784;9.198;2023-04-06T06:09:00;3.10;99.90
11934;DHT22;6026;48.784;9.198;2023-04-06T06:11:27;3.20;99.90
11934;DHT22;6026;48.784;9.198;2023-04-06T06:13:52;3.40;99.90
11934;DHT22;6026;48.784;9.198;2023-04-06T06:16:19;3.50;99.90
11934;DHT22;6026;48.784;9.198;2023-04-06T06:18:45;3.60;99.90
11934;DHT22;6026;48.784;9.198;2023-04-06T06:21:10;3.70;99.90
11934;DHT22;6026;48.784;9.198;2023-04-06T06:23:38;3.90;99.90
11934;DHT22;6026;48.784;9.198;2023-04-06T06:26:04;4.00;99.90
11934;DHT22;6026;48.784;9.198;2023-04-06T06:28:30;4.20;99.90
11934;DHT22;6026;48.784;9.198;2023-04-06T06:30:55;4.30;99.90
11934;DHT22;6026;48.784;9.198;2023-04-06T06:33:21;4.30;99.90
11934;DHT22;6026;48.784;9.198;2023-04-06T06:35:47;4.50;99.90
11934;DHT22;6026;48.784;9.198;2023-04-06T06:38:12;4.70;99.90
11934;DHT22;6026;48.784;9.198;2023-04-06T06:40:39;4.80;99.90
11934;DHT22;6026;48.784;9.198;2023-04-06T06:43:04;4.90;99.90
11934;DHT22;6026;48.784;9.198;2023-04-06T06:45:30;5.10;99.90
11934;DHT22;6026;48.784;9.198;2023-04-06T06:47:56;5.20;99.90
11934;DHT22;6026;48.784;9.198;2023-04-06T06:50:22;5.30;99.90
11934;DHT22;6026;48.784;9.198;2023-04-06T06:52:47;5.50;99.90
11934;DHT22;6026;48.784;9.198;2023-04-06T06:55:13;5.60;99.90
11934;DHT22;6026;48.784;9.198;2023-04-06T06:57:38;5.70;99.90
11934;DHT22;6026;48.784;9.198;2023-04-06T07:00:05;5.80;99.90
11934;DHT22;6026;48.784;9.198;2023-04-06T07:02:33;5.90;99.90
11934;DHT22;6026;48.784;9.198;2023-04-06T07:04:59;6.00;99.90
11934;DHT22;6026;48.784;9.198;2023-04-06T07:07:24;6.10;99.90
11934;DHT22;6026;48.784;9.198;2023-04-06T07:09:50;6.30;99.90
11934;DHT22;6026;48.784;9.198;2023-04-06T07:12:15;6.40;99.90
11934;DHT22;6026;48.784;9.198;2023-04-06T07:14:41;6.50;99.90
11934;DHT22;6026;48.784;9.198;2023-04-06T07:17:07;6.60;99.90
11934;DHT22;6026;48.784;9.198;2023-04-06T07:19:33;6.80;99.90
11934;DHT22;6026;48.784;9.198;2023-04-06T07:21:58;7.00;99.90
11934;DHT22;6026;48.784;9.198;2023-04-06T07:24:24;6.90;99.90
11934;DHT22;6026;48.784;9.198;2023-04-06T07:26:50;7.10;99.90
11934;DHT22;6026;48.784;9.198;2023-04-06T07:29:16;7.40;99.90
11934;DHT22;6026;48.784;9.198;2023-04-06T07:31:41;7.50;99.90
11934;DHT22;6026;48.784;9.198;2023-04-06T07:34:07;7.80;99.90
11934;DHT22;6026;48.784;9.198;2023-04-06T07:36:32;8.00;99.90
11934;DHT22;6026;48.784;9.198;2023-04-06T07:38:58;8.30;99.90
11934;DHT22;6026;48.784;9.198;2023-04-06T07:41:24;8.40;99.90
11934;DHT22;6026;48.784;9.198;2023-04-06T07:43:50;8.60;99.90
11934;DHT22;6026;48.784;9.198;2023-04-06T07:46:15;8.70;99.90
11934;DHT22;6026;48.784;9.198;2023-04-06T07:48:41;8.90;99.90
11934;DHT22;6026;48.784;9.198;2023-04-06T07:51:06;8.90;99.90
11934;DHT22;6026;48.784;9.198;2023-04-06T07:53:32;9.10;99.90
11934;DHT22;6026;48.784;9.198;2023-04-06T07:55:58;9.30;99.90
11934;DHT22;6026;48.784;9.198;2023-04-06T07:58:24;9.60;99.90
11934;DHT22;6026;48.784;9.198;2023-04-06T08:00:50;9.80;99.90
11934;DHT22;6026;48.784;9.198;2023-04-06T08:03:15;10.00;99.90
11934;DHT22;6026;48.784;9.198;2023-04-06T08:05:42;10.30;99.90
11934;DHT22;6026;48.784;9.198;2023-04-06T08:08:08;10.40;99.90
11934;DHT22;6026;48.784;9.198;2023-04-06T08:10:33;10.60;99.90
11934;DHT22;6026;48.784;9.198;2023-04-06T08:13:00;10.70;99.90
11934;DHT22;6026;48.784;9.198;2023-04-06T08:15:25;10.80;99.90
11934;DHT22;6026;48.784;9.198;2023-04-06T08:17:51;11.00;99.90
11934;DHT22;6026;48.784;9.198;2023-04-06T08:20:17;11.10;99.90
11934;DHT22;6026;48.784;9.198;2023-04-06T08:22:42;11.10;99.90
11934;DHT22;6026;48.784;9.198;2023-04-06T08:25:08;11.40;99.90
11934;DHT22;6026;48.784;9.198;2023-04-06T08:27:34;11.60;99.90
11934;DHT22;6026;48.784;9.198;2023-04-06T08:30:01;11.80;99.90
11934;DHT22;6026;48.784;9.198;2023-04-06T08:32:27;12.10;99.90
11934;DHT22;6026;48.784;9.198;2023-04-06T08:34:55;12.10;99.90
11934;DHT22;6026;48.784;9.198;2023-04-06T08:37:22;12.40;99.90
11934;DHT22;6026;48.784;9.198;2023-04-06T08:39:47;12.50;99.90
11934;DHT22;6026;48.784;9.198;2023-04-06T08:42:19;12.80;99.90
11934;DHT22;6026;48.784;9.198;2023-04-06T08:44:45;12.90;99.90
11934;DHT22;6026;48.784;9.198;2023-04-06T08:47:12;13.10;99.90
11934;DHT22;6026;48.784;9.198;2023-04-06T08:49:38;13.30;99.90
11934;DHT22;6026;48.784;9.198;2023-04-06T08:52:06;13.10;99.90
11934;DHT22;6026;48.784;9.198;2023-04-06T08:54:33;13.00;99.90
11934;DHT22;6026;48.784;9.198;2023-04-06T08:57:00;13.20;99.90
11934;DHT22;6026;48.784;9.198;2023-04-06T08:59:27;13.60;99.90
11934;DHT22;6026;48.784;9.198;2023-04-06T09:01:53;13.80;99.90
11934;DHT22;6026;48.784;9.198;2023-04-06T09:04:19;14.10;99.90
11934;DHT22;6026;48.784;9.198;2023-04-06T09:06:45;13.80;99.90
11934;DHT22;6026;48.784;9.198;2023-04-06T09:09:11;14.20;99.90
11934;DHT22;6026;48.784;9.198;2023-04-06T09:11:49;14.50;99.90
11934;DHT22;6026;48.784;9.198;2023-04-06T09:14:16;14.10;99.90
11934;DHT22;6026;48.784;9.198;2023-04-06T09:16:44;14.20;99.60
11934;DHT22;6026;48.784;9.198;2023-04-06T09:19:11;14.50;99.70
11934;DHT22;6026;48.784;9.198;2023-04-06T09:21:38;14.80;99.00
11934;DHT22;6026;48.784;9.198;2023-04-06T09:24:06;14.80;97.80
11934;DHT22;6026;48.784;9.198;2023-04-06T09:26:32;14.60;98.50
11934;DHT22;6026;48.784;9.198;2023-04-06T09:29:09;14.80;98.90
11934;DHT22;6026;48.784;9.198;2023-04-06T09:31:35;15.10;97.70
11934;DHT22;6026;48.784;9.198;2023-04-06T09:34:01;15.60;95.80
11934;DHT22;6026;48.784;9.198;2023-04-06T09:36:34;15.60;95.40
11934;DHT22;6026;48.784;9.198;2023-04-06T09:39:04;15.80;94.60
11934;DHT22;6026;48.784;9.198;2023-04-06T09:41:32;16.10;93.00
11934;DHT22;6026;48.784;9.198;2023-04-06T09:44:03;15.90;92.90
11934;DHT22;6026;48.784;9.198;2023-04-06T09:46:32;16.10;93.50
11934;DHT22;6026;48.784;9.198;2023-04-06T09:48:59;16.20;92.30
11934;DHT22;6026;48.784;9.198;2023-04-06T09:51:26;16.20;90.90
11934;DHT22;6026;48.784;9.198;2023-04-06T09:53:55;16.20;92.00
11934;DHT22;6026;48.784;9.198;2023-04-06T09:56:27;16.50;91.70
11934;DHT22;6026;48.784;9.198;2023-04-06T09:58:57;16.40;91.70
11934;DHT22;6026;48.784;9.198;2023-04-06T10:01:27;16.60;91.30
11934;DHT22;6026;48.784;9.198;2023-04-06T10:06:40;15.90;91.10
11934;DHT22;6026;48.784;9.198;2023-04-06T10:09:07;15.70;89.50
11934;DHT22;6026;48.784;9.198;2023-04-06T10:11:34;16.10;88.40
11934;DHT22;6026;48.784;9.198;2023-04-06T10:14:00;16.60;86.50
11934;DHT22;6026;48.784;9.198;2023-04-06T10:16:26;16.40;87.80
11934;DHT22;6026;48.784;9.198;2023-04-06T10:19:00;16.70;88.20
11934;DHT22;6026;48.784;9.198;2023-04-06T10:21:29;17.10;87.70
11934;DHT22;6026;48.784;9.198;2023-04-06T10:23:59;17.10;86.40
11934;DHT22;6026;48.784;9.198;2023-04-06T10:26:26;17.00;85.50
11934;DHT22;6026;48.784;9.198;2023-04-06T10:28:52;17.10;85.60
11934;DHT22;6026;48.784;9.198;2023-04-06T10:31:27;17.30;87.00
11934;DHT22;6026;48.784;9.198;2023-04-06T10:33:58;17.50;84.10
11934;DHT22;6026;48.784;9.198;2023-04-06T10:36:26;17.40;85.10
11934;DHT22;6026;48.784;9.198;2023-04-06T10:39:03;17.50;83.40
11934;DHT22;6026;48.784;9.198;2023-04-06T10:41:43;17.40;83.70
11934;DHT22;6026;48.784;9.198;2023-04-06T10:44:20;16.50;81.50
11934;DHT22;6026;48.784;9.198;2023-04-06T10:46:57;17.20;81.70
11934;DHT22;6026;48.784;9.198;2023-04-06T10:49:24;17.30;81.90
11934;DHT22;6026;48.784;9.198;2023-04-06T10:51:54;17.10;83.00
11934;DHT22;6026;48.784;9.198;2023-04-06T10:54:26;17.40;84.10
11934;DHT22;6026;48.784;9.198;2023-04-06T10:56:52;17.60;83.20
11934;DHT22;6026;48.784;9.198;2023-04-06T10:59:21;17.90;81.70
11934;DHT22;6026;48.784;9.198;2023-04-06T11:01:46;18.20;80.80
11934;DHT22;6026;48.784;9.198;2023-04-06T11:04:19;18.10;80.70
11934;DHT22;6026;48.784;9.198;2023-04-06T11:06:49;18.10;80.50
11934;DHT22;6026;48.784;9.198;2023-04-06T11:09:29;17.60;80.80
11934;DHT22;6026;48.784;9.198;2023-04-06T11:11:55;17.50;81.80
11934;DHT22;6026;48.784;9.198;2023-04-06T11:14:22;18.20;81.30
11934;DHT22;6026;48.784;9.198;2023-04-06T11:16:48;18.20;80.70
11934;DHT22;6026;48.784;9.198;2023-04-06T11:19:17;18.50;79.30
11934;DHT22;6026;48.784;9.198;2023-04-06T11:21:47;18.70;81.30
11934;DHT22;6026;48.784;9.198;2023-04-06T11:24:15;18.70;77.30
11934;DHT22;6026;48.784;9.198;2023-04-06T11:29:17;18.40;77.50
11934;DHT22;6026;48.784;9.198;2023-04-06T11:31:46;18.30;77.50
11934;DHT22;6026;48.784;9.198;2023-04-06T11:34:17;18.20;75.30
11934;DHT22;6026;48.784;9.198;2023-04-06T11:36:45;18.20;75.30
11934;DHT22;6026;48.784;9.198;2023-04-06T11:39:13;17.90;76.00
11934;DHT22;6026;48.784;9.198;2023-04-06T11:41:39;18.40;78.30
11934;DHT22;6026;48.784;9.198;2023-04-06T11:44:05;19.10;76.90
11934;DHT22;6026;48.784;9.198;2023-04-06T11:46:31;19.40;76.00
11934;DHT22;6026;48.784;9.198;2023-04-06T11:49:01;19.50;75.80
11934;DHT22;6026;48.784;9.198;2023-04-06T11:51:27;19.80;73.80
11934;DHT22;6026;48.784;9.198;2023-04-06T11:53:54;19.40;73.90
11934;DHT22;6026;48.784;9.198;2023-04-06T11:56:30;19.50;75.10
11934;DHT22;6026;48.784;9.198;2023-04-06T11:58:57;19.60;75.80
11934;DHT22;6026;48.784;9.198;2023-04-06T12:01:24;19.30;73.60
11934;DHT22;6026;48.784;9.198;2023-04-06T12:03:50;19.80;76.40
11934;DHT22;6026;48.784;9.198;2023-04-06T12:06:17;19.10;75.70
11934;DHT22;6026;48.784;9.198;2023-04-06T12:08:42;19.10;74.60
11934;DHT22;6026;48.784;9.198;2023-04-06T12:11:08;19.30;74.40
11934;DHT22;6026;48.784;9.198;2023-04-06T12:13:34;19.50;72.20
11934;DHT22;6026;48.784;9.198;2023-04-06T12:15:59;19.70;74.00
11934;DHT22;6026;48.784;9.198;2023-04-06T12:18:25;19.50;71.70
11934;DHT22;6026;48.784;9.198;2023-04-06T12:20:51;18.90;74.40
11934;DHT22;6026;48.784;9.198;2023-04-06T12:23:18;18.70;72.10
11934;DHT22;6026;48.784;9.198;2023-04-06T12:25:44;18.60;73.60
11934;DHT22;6026;48.784;9.198;2023-04-06T12:28:10;18.20;74.00
11934;DHT22;6026;48.784;9.198;2023-04-06T12:30:35;17.80;71.20
11934;DHT22;6026;48.784;9.198;2023-04-06T12:33:01;18.40;71.50
11934;DHT22;6026;48.784;9.198;2023-04-06T12:35:27;19.10;73.80
11934;DHT22;6026;48.784;9.198;2023-04-06T12:37:52;19.50;71.70
11934;DHT22;6026;48.784;9.198;2023-04-06T12:40:18;19.90;70.30
11934;DHT22;6026;48.784;9.198;2023-04-06T12:42:44;20.00;72.20
11934;DHT22;6026;48.784;9.198;2023-04-06T12:45:11;19.70;70.10
11934;DHT22;6026;48.784;9.198;2023-04-06T12:47:37;18.60;79.10
11934;DHT22;6026;48.784;9.198;2023-04-06T12:50:04;18.90;75.50
11934;DHT22;6026;48.784;9.198;2023-04-06T12:52:31;18.90;75.90
11934;DHT22;6026;48.784;9.198;2023-04-06T12:54:57;19.10;72.00
11934;DHT22;6026;48.784;9.198;2023-04-06T12:57:24;18.20;75.50
11934;DHT22;6026;48.784;9.198;2023-04-06T12:59:51;17.10;74.20
11934;DHT22;6026;48.784;9.198;2023-04-06T13:02:18;17.20;73.40
11934;DHT22;6026;48.784;9.198;2023-04-06T13:04:45;18.20;77.40
11934;DHT22;6026;48.784;9.198;2023-04-06T13:07:11;18.70;73.20
11934;DHT22;6026;48.784;9.198;2023-04-06T13:09:37;19.00;71.60
11934;DHT22;6026;48.784;9.198;2023-04-06T13:12:03;18.90;72.40
11934;DHT22;6026;48.784;9.198;2023-04-06T13:14:28;19.10;70.40
11934;DHT22;6026;48.784;9.198;2023-04-06T13:16:54;19.20;71.70
11934;DHT22;6026;48.784;9.198;2023-04-06T13:19:20;19.10;71.80
11934;DHT22;6026;48.784;9.198;2023-04-06T13:21:45;18.90;71.40
11934;DHT22;6026;48.784;9.198;2023-04-06T13:24:11;18.60;70.80
11934;DHT22;6026;48.784;9.198;2023-04-06T13:26:37;18.30;71.00
11934;DHT22;6026;48.784;9.198;2023-04-06T13:29:02;17.80;71.20
11934;DHT22;6026;48.784;9.198;2023-04-06T13:31:29;17.80;72.40
11934;DHT22;6026;48.784;9.198;2023-04-06T13:33:55;17.80;73.40
11934;DHT22;6026;48.784;9.198;2023-04-06T13:36:21;17.60;71.60
11934;DHT22;6026;48.784;9.198;2023-04-06T13:38:47;17.00;70.20
11934;DHT22;6026;48.784;9.198;2023-04-06T13:41:20;16.80;72.90
11934;DHT22;6026;48.784;9.198;2023-04-06T13:43:46;16.70;71.50
11934;DHT22;6026;48.784;9.198;2023-04-06T13:46:12;17.00;73.50
11934;DHT22;6026;48.784;9.198;2023-04-06T13:48:37;16.90;71.20
11934;DHT22;6026;48.784;9.198;2023-04-06T13:51:10;17.20;72.00
11934;DHT22;6026;48.784;9.198;2023-04-06T13:53:36;17.70;71.90
11934;DHT22;6026;48.784;9.198;2023-04-06T13:56:02;17.70;71.40
11934;DHT22;6026;48.784;9.198;2023-04-06T13:58:28;17.60;71.50
11934;DHT22;6026;48.784;9.198;2023-04-06T14:00:53;17.50;72.00
11934;DHT22;6026;48.784;9.198;2023-04-06T14:03:19;17.60;73.80
11934;DHT22;6026;48.784;9.198;2023-04-06T14:05:45;17.50;74.10
11934;DHT22;6026;48.784;9.198;2023-04-06T14:08:11;17.50;75.50
11934;DHT22;6026;48.784;9.198;2023-04-06T14:10:40;17.50;73.60
11934;DHT22;6026;48.784;9.198;2023-04-06T14:13:06;17.50;73.30
11934;DHT22;6026;48.784;9.198;2023-04-06T14:15:31;17.40;71.70
11934;DHT22;6026;48.784;9.198;2023-04-06T14:17:57;17.00;72.80
11934;DHT22;6026;48.784;9.198;2023-04-06T14:20:23;16.90;72.30
11934;DHT22;6026;48.784;9.198;2023-04-06T14:22:48;16.90;72.30
11934;DHT22;6026;48.784;9.198;2023-04-06T14:25:14;17.00;74.00
11934;DHT22;6026;48.784;9.198;2023-04-06T14:27:42;16.90;73.50
11934;DHT22;6026;48.784;9.198;2023-04-06T14:30:08;17.00;72.20
11934;DHT22;6026;48.784;9.198;2023-04-06T14:32:34;17.00;73.10
11934;DHT22;6026;48.784;9.198;2023-04-06T14:35:01;16.90;72.20
11934;DHT22;6026;48.784;9.198;2023-04-06T14:37:27;16.80;71.10
11934;DHT22;6026;48.784;9.198;2023-04-06T14:39:52;16.80;73.80
11934;DHT22;6026;48.784;9.198;2023-04-06T14:42:18;16.70;73.30
11934;DHT22;6026;48.784;9.198;2023-04-06T14:44:43;16.90;73.30
11934;DHT22;6026;48.784;9.198;2023-04-06T14:47:10;16.50;71.40
11934;DHT22;6026;48.784;9.198;2023-04-06T14:49:36;16.30;71.20
11934;DHT22;6026;48.784;9.198;2023-04-06T14:52:02;15.80;70.90
11934;DHT22;6026;48.784;9.198;2023-04-06T14:54:28;15.20;71.30
11934;DHT22;6026;48.784;9.198;2023-04-06T14:56:53;15.60;73.90
11934;DHT22;6026;48.784;9.198;2023-04-06T14:59:19;15.50;72.50
11934;DHT22;6026;48.784;9.198;2023-04-06T15:01:45;15.40;72.00
11934;DHT22;6026;48.784;9.198;2023-04-06T15:04:10;15.50;71.50
11934;DHT22;6026;48.784;9.198;2023-04-06T15:06:36;15.80;74.50
11934;DHT22;6026;48.784;9.198;2023-04-06T15:09:02;15.90;73.00
11934;DHT22;6026;48.784;9.198;2023-04-06T15:11:28;16.00;73.00
11934;DHT22;6026;48.784;9.198;2023-04-06T15:13:54;15.90;72.90
11934;DHT22;6026;48.784;9.198;2023-04-06T15:16:19;16.00;73.90
11934;DHT22;6026;48.784;9.198;2023-04-06T15:18:45;16.00;74.50
11934;DHT22;6026;48.784;9.198;2023-04-06T15:21:10;15.90;76.00
11934;DHT22;6026;48.784;9.198;2023-04-06T15:23:36;15.90;73.10
11934;DHT22;6026;48.784;9.198;2023-04-06T15:26:02;15.80;72.30
11934;DHT22;6026;48.784;9.198;2023-04-06T15:28:27;15.60;73.00
11934;DHT22;6026;48.784;9.198;2023-04-06T15:30:54;15.60;74.70
11934;DHT22;6026;48.784;9.198;2023-04-06T15:33:20;15.60;73.90
11934;DHT22;6026;48.784;9.198;2023-04-06T15:35:47;15.60;72.70
11934;DHT22;6026;48.784;9.198;2023-04-06T15:38:13;15.60;72.50
11934;DHT22;6026;48.784;9.198;2023-04-06T15:40:46;15.60;71.90
11934;DHT22;6026;48.784;9.198;2023-04-06T15:43:12;15.20;73.20
11934;DHT22;6026;48.784;9.198;2023-04-06T15:45:39;15.20;74.50
11934;DHT22;6026;48.784;9.198;2023-04-06T15:48:04;15.30;77.50
11934;DHT22;6026;48.784;9.198;2023-04-06T15:50:31;15.20;78.10
11934;DHT22;6026;48.784;9.198;2023-04-06T15:52:56;15.20;77.70
11934;DHT22;6026;48.784;9.198;2023-04-06T15:55:22;15.10;77.50